sensor_id;sensor_type;location;lat;lon;timestamp;P1;durP1;ratioP1;P2;durP2;ratioP2
62915;SDS011;49010;51.230;-2.306;2022-09-02T00:00:09;4.57;;;2.15;;
62915;SDS011;49010;51.230;-2.306;2022-09-02T00:03:55;3.90;;;2.20;;
62915;SDS011;49010;51.230;-2.306;2022-09-02T00:07:39;6.82;;;2.28;;
62915;SDS011;49010;51.230;-2.306;2022-09-02T00:11:22;8.38;;;2.25;;
62915;SDS011;49010;51.230;-2.306;2022-09-02T00:15:08;3.95;;;1.95;;
62915;SDS011;49010;51.230;-2.306;2022-09-02T00:18:51;5.15;;;1.90;;
62915;SDS011;49010;51.230;-2.306;2022-09-02T00:22:33;6.28;;;2.03;;
62915;SDS011;49010;51.230;-2.306;2022-09-02T00:26:16;7.13;;;2.35;;
62915;SDS011;49010;51.230;-2.306;2022-09-02T00:29:58;6.72;;;2.47;;
62915;SDS011;49010;51.230;-2.306;2022-09-02T00:33:40;6.38;;;2.13;;
62915;SDS011;49010;51.230;-2.306;2022-09-02T00:37:22;8.80;;;2.30;;
62915;SDS011;49010;51.230;-2.306;2022-09-02T00:41:07;6.18;;;2.30;;
62915;SDS011;49010;51.230;-2.306;2022-09-02T00:44:51;5.80;;;2.25;;
62915;SDS011;49010;51.230;-2.306;2022-09-02T00:48:34;4.18;;;1.98;;
62915;SDS011;49010;51.230;-2.306;2022-09-02T00:56:25;4.82;;;2.20;;
62915;SDS011;49010;51.230;-2.306;2022-09-02T01:03:58;5.60;;;2.55;;
62915;SDS011;49010;51.230;-2.306;2022-09-02T01:07:40;6.95;;;2.40;;
62915;SDS011;49010;51.230;-2.306;2022-09-02T01:11:26;5.68;;;2.50;;
62915;SDS011;49010;51.230;-2.306;2022-09-02T01:15:17;6.35;;;3.05;;
62915;SDS011;49010;51.230;-2.306;2022-09-02T01:19:01;5.45;;;2.70;;
62915;SDS011;49010;51.230;-2.306;2022-09-02T01:22:46;4.97;;;2.75;;
62915;SDS011;49010;51.230;-2.306;2022-09-02T01:26:28;6.80;;;2.33;;
62915;SDS011;49010;51.230;-2.306;2022-09-02T01:30:12;5.68;;;2.50;;
62915;SDS011;49010;51.230;-2.306;2022-09-02T01:33:57;5.50;;;2.22;;
62915;SDS011;49010;51.230;-2.306;2022-09-02T01:37:39;4.85;;;2.47;;
62915;SDS011;49010;51.230;-2.306;2022-09-02T01:41:35;3.65;;;2.40;;
62915;SDS011;49010;51.230;-2.306;2022-09-02T01:45:18;4.43;;;2.55;;
62915;SDS011;49010;51.230;-2.306;2022-09-02T01:49:00;5.47;;;2.80;;
62915;SDS011;49010;51.230;-2.306;2022-09-02T01:52:41;8.45;;;3.55;;
62915;SDS011;49010;51.230;-2.306;2022-09-02T01:56:23;7.18;;;3.97;;
62915;SDS011;49010;51.230;-2.306;2022-09-02T02:00:07;7.20;;;4.30;;
62915;SDS011;49010;51.230;-2.306;2022-09-02T02:03:50;6.00;;;3.70;;
62915;SDS011;49010;51.230;-2.306;2022-09-02T02:07:33;7.60;;;4.10;;
62915;SDS011;49010;51.230;-2.306;2022-09-02T02:11:19;7.70;;;4.30;;
62915;SDS011;49010;51.230;-2.306;2022-09-02T02:15:04;6.68;;;4.00;;
62915;SDS011;49010;51.230;-2.306;2022-09-02T02:18:58;7.25;;;4.47;;
62915;SDS011;49010;51.230;-2.306;2022-09-02T02:22:41;10.93;;;4.70;;
62915;SDS011;49010;51.230;-2.306;2022-09-02T02:26:24;6.65;;;4.53;;
62915;SDS011;49010;51.230;-2.306;2022-09-02T02:30:06;5.63;;;4.55;;
62915;SDS011;49010;51.230;-2.306;2022-09-02T02:33:49;8.02;;;5.03;;
62915;SDS011;49010;51.230;-2.306;2022-09-02T02:37:32;6.15;;;5.32;;
62915;SDS011;49010;51.230;-2.306;2022-09-02T02:41:14;11.88;;;5.65;;
62915;SDS011;49010;51.230;-2.306;2022-09-02T02:44:56;7.57;;;5.32;;
62915;SDS011;49010;51.230;-2.306;2022-09-02T02:48:38;7.53;;;5.10;;
62915;SDS011;49010;51.230;-2.306;2022-09-02T02:52:20;8.65;;;4.68;;
62915;SDS011;49010;51.230;-2.306;2022-09-02T02:56:03;7.13;;;4.00;;
62915;SDS011;49010;51.230;-2.306;2022-09-02T02:59:46;8.63;;;4.78;;
62915;SDS011;49010;51.230;-2.306;2022-09-02T03:03:27;6.70;;;4.57;;
62915;SDS011;49010;51.230;-2.306;2022-09-02T03:07:10;8.18;;;4.63;;
62915;SDS011;49010;51.230;-2.306;2022-09-02T03:10:52;9.68;;;4.90;;
62915;SDS011;49010;51.230;-2.306;2022-09-02T03:14:35;7.65;;;4.80;;
62915;SDS011;49010;51.230;-2.306;2022-09-02T03:18:17;8.60;;;4.78;;
62915;SDS011;49010;51.230;-2.306;2022-09-02T03:22:01;9.20;;;4.78;;
62915;SDS011;49010;51.230;-2.306;2022-09-02T03:25:45;7.18;;;4.60;;
62915;SDS011;49010;51.230;-2.306;2022-09-02T03:29:27;10.93;;;5.63;;
62915;SDS011;49010;51.230;-2.306;2022-09-02T03:33:08;6.95;;;5.32;;
62915;SDS011;49010;51.230;-2.306;2022-09-02T03:36:50;13.52;;;4.75;;
62915;SDS011;49010;51.230;-2.306;2022-09-02T03:40:32;6.32;;;4.38;;
62915;SDS011;49010;51.230;-2.306;2022-09-02T03:44:14;7.40;;;4.50;;
62915;SDS011;49010;51.230;-2.306;2022-09-02T03:47:56;5.78;;;4.32;;
62915;SDS011;49010;51.230;-2.306;2022-09-02T03:51:39;8.25;;;5.03;;
62915;SDS011;49010;51.230;-2.306;2022-09-02T03:55:22;8.20;;;5.38;;
62915;SDS011;49010;51.230;-2.306;2022-09-02T03:59:04;8.30;;;5.85;;
62915;SDS011;49010;51.230;-2.306;2022-09-02T04:02:47;8.70;;;5.40;;
62915;SDS011;49010;51.230;-2.306;2022-09-02T04:06:30;6.38;;;5.32;;
62915;SDS011;49010;51.230;-2.306;2022-09-02T04:10:13;6.95;;;5.25;;
62915;SDS011;49010;51.230;-2.306;2022-09-02T04:13:55;6.95;;;5.20;;
62915;SDS011;49010;51.230;-2.306;2022-09-02T04:17:38;8.43;;;5.20;;
62915;SDS011;49010;51.230;-2.306;2022-09-02T04:21:21;9.35;;;5.50;;
62915;SDS011;49010;51.230;-2.306;2022-09-02T04:25:04;8.85;;;5.53;;
62915;SDS011;49010;51.230;-2.306;2022-09-02T04:28:48;9.30;;;5.65;;
62915;SDS011;49010;51.230;-2.306;2022-09-02T04:32:30;9.10;;;5.68;;
62915;SDS011;49010;51.230;-2.306;2022-09-02T04:36:20;9.07;;;6.72;;
62915;SDS011;49010;51.230;-2.306;2022-09-02T04:40:04;8.55;;;6.60;;
62915;SDS011;49010;51.230;-2.306;2022-09-02T04:43:46;8.38;;;6.45;;
62915;SDS011;49010;51.230;-2.306;2022-09-02T04:47:29;9.98;;;7.22;;
62915;SDS011;49010;51.230;-2.306;2022-09-02T04:51:13;7.60;;;6.22;;
62915;SDS011;49010;51.230;-2.306;2022-09-02T04:54:56;11.07;;;6.78;;
62915;SDS011;49010;51.230;-2.306;2022-09-02T04:58:38;9.85;;;6.07;;
62915;SDS011;49010;51.230;-2.306;2022-09-02T05:02:21;13.75;;;7.63;;
62915;SDS011;49010;51.230;-2.306;2022-09-02T05:06:04;8.50;;;6.30;;
62915;SDS011;49010;51.230;-2.306;2022-09-02T05:09:48;10.55;;;6.95;;
62915;SDS011;49010;51.230;-2.306;2022-09-02T05:13:30;11.48;;;7.13;;
62915;SDS011;49010;51.230;-2.306;2022-09-02T05:17:12;10.95;;;6.78;;
62915;SDS011;49010;51.230;-2.306;2022-09-02T05:20:55;9.70;;;7.28;;
62915;SDS011;49010;51.230;-2.306;2022-09-02T05:24:37;8.82;;;6.53;;
62915;SDS011;49010;51.230;-2.306;2022-09-02T05:28:19;7.35;;;6.57;;
62915;SDS011;49010;51.230;-2.306;2022-09-02T05:32:01;10.68;;;6.65;;
62915;SDS011;49010;51.230;-2.306;2022-09-02T05:35:44;9.10;;;6.80;;
62915;SDS011;49010;51.230;-2.306;2022-09-02T05:39:30;12.27;;;7.18;;
62915;SDS011;49010;51.230;-2.306;2022-09-02T05:43:12;7.03;;;5.80;;
62915;SDS011;49010;51.230;-2.306;2022-09-02T05:46:54;7.93;;;6.35;;
62915;SDS011;49010;51.230;-2.306;2022-09-02T05:50:36;8.63;;;5.68;;
62915;SDS011;49010;51.230;-2.306;2022-09-02T05:54:19;12.25;;;7.22;;
62915;SDS011;49010;51.230;-2.306;2022-09-02T05:58:09;8.07;;;6.32;;
62915;SDS011;49010;51.230;-2.306;2022-09-02T06:01:51;11.45;;;6.25;;
62915;SDS011;49010;51.230;-2.306;2022-09-02T06:05:34;9.40;;;6.78;;
62915;SDS011;49010;51.230;-2.306;2022-09-02T06:09:19;10.02;;;7.45;;
62915;SDS011;49010;51.230;-2.306;2022-09-02T06:13:02;9.10;;;6.68;;
62915;SDS011;49010;51.230;-2.306;2022-09-02T06:16:45;10.10;;;6.25;;
62915;SDS011;49010;51.230;-2.306;2022-09-02T06:20:27;12.82;;;6.57;;
62915;SDS011;49010;51.230;-2.306;2022-09-02T06:24:12;11.13;;;7.68;;
62915;SDS011;49010;51.230;-2.306;2022-09-02T06:27:54;9.98;;;6.70;;
62915;SDS011;49010;51.230;-2.306;2022-09-02T06:31:36;12.57;;;7.35;;
62915;SDS011;49010;51.230;-2.306;2022-09-02T06:35:21;11.10;;;6.63;;
62915;SDS011;49010;51.230;-2.306;2022-09-02T06:39:03;11.25;;;6.28;;
62915;SDS011;49010;51.230;-2.306;2022-09-02T06:42:45;11.60;;;6.65;;
62915;SDS011;49010;51.230;-2.306;2022-09-02T06:46:30;13.73;;;6.75;;
62915;SDS011;49010;51.230;-2.306;2022-09-02T06:50:14;11.55;;;7.15;;
62915;SDS011;49010;51.230;-2.306;2022-09-02T06:53:56;12.25;;;6.78;;
62915;SDS011;49010;51.230;-2.306;2022-09-02T06:57:40;12.10;;;6.18;;
62915;SDS011;49010;51.230;-2.306;2022-09-02T07:01:24;9.07;;;5.78;;
62915;SDS011;49010;51.230;-2.306;2022-09-02T07:05:07;9.50;;;5.25;;
62915;SDS011;49010;51.230;-2.306;2022-09-02T07:08:49;10.00;;;5.60;;
62915;SDS011;49010;51.230;-2.306;2022-09-02T07:12:35;7.28;;;5.40;;
62915;SDS011;49010;51.230;-2.306;2022-09-02T07:16:18;9.98;;;6.18;;
62915;SDS011;49010;51.230;-2.306;2022-09-02T07:20:07;9.48;;;6.00;;
62915;SDS011;49010;51.230;-2.306;2022-09-02T07:23:49;10.18;;;5.35;;
62915;SDS011;49010;51.230;-2.306;2022-09-02T07:27:32;8.27;;;5.22;;
62915;SDS011;49010;51.230;-2.306;2022-09-02T07:31:15;9.68;;;5.20;;
62915;SDS011;49010;51.230;-2.306;2022-09-02T07:34:57;6.60;;;4.60;;
62915;SDS011;49010;51.230;-2.306;2022-09-02T07:38:39;13.00;;;4.80;;
62915;SDS011;49010;51.230;-2.306;2022-09-02T07:42:22;9.23;;;5.05;;
62915;SDS011;49010;51.230;-2.306;2022-09-02T07:46:05;10.82;;;4.78;;
62915;SDS011;49010;51.230;-2.306;2022-09-02T07:49:47;9.35;;;5.07;;
62915;SDS011;49010;51.230;-2.306;2022-09-02T07:53:49;7.25;;;4.43;;
62915;SDS011;49010;51.230;-2.306;2022-09-02T07:57:32;9.63;;;4.50;;
62915;SDS011;49010;51.230;-2.306;2022-09-02T08:01:14;8.13;;;4.63;;
62915;SDS011;49010;51.230;-2.306;2022-09-02T08:05:02;6.65;;;4.10;;
62915;SDS011;49010;51.230;-2.306;2022-09-02T08:08:45;8.65;;;5.25;;
62915;SDS011;49010;51.230;-2.306;2022-09-02T08:12:27;6.88;;;4.80;;
62915;SDS011;49010;51.230;-2.306;2022-09-02T08:16:09;11.32;;;5.28;;
62915;SDS011;49010;51.230;-2.306;2022-09-02T08:19:51;8.88;;;4.10;;
62915;SDS011;49010;51.230;-2.306;2022-09-02T08:23:33;6.65;;;4.10;;
62915;SDS011;49010;51.230;-2.306;2022-09-02T08:27:17;7.75;;;3.80;;
62915;SDS011;49010;51.230;-2.306;2022-09-02T08:31:02;7.10;;;4.20;;
62915;SDS011;49010;51.230;-2.306;2022-09-02T08:34:45;7.05;;;4.20;;
62915;SDS011;49010;51.230;-2.306;2022-09-02T08:38:28;7.18;;;3.70;;
62915;SDS011;49010;51.230;-2.306;2022-09-02T08:46:01;6.13;;;4.13;;
62915;SDS011;49010;51.230;-2.306;2022-09-02T08:49:52;8.43;;;3.47;;
62915;SDS011;49010;51.230;-2.306;2022-09-02T08:57:39;6.40;;;4.07;;
62915;SDS011;49010;51.230;-2.306;2022-09-02T09:05:43;9.35;;;3.70;;
62915;SDS011;49010;51.230;-2.306;2022-09-02T09:17:14;5.53;;;3.30;;
62915;SDS011;49010;51.230;-2.306;2022-09-02T09:20:57;13.52;;;3.72;;
62915;SDS011;49010;51.230;-2.306;2022-09-02T09:24:42;8.57;;;3.30;;
62915;SDS011;49010;51.230;-2.306;2022-09-02T09:28:26;9.40;;;3.85;;
62915;SDS011;49010;51.230;-2.306;2022-09-02T09:36:08;11.43;;;3.28;;
62915;SDS011;49010;51.230;-2.306;2022-09-02T09:39:53;10.70;;;3.55;;
62915;SDS011;49010;51.230;-2.306;2022-09-02T09:43:35;11.52;;;3.88;;
62915;SDS011;49010;51.230;-2.306;2022-09-02T09:47:18;7.47;;;3.75;;
62915;SDS011;49010;51.230;-2.306;2022-09-02T09:54:44;9.10;;;3.55;;
62915;SDS011;49010;51.230;-2.306;2022-09-02T09:58:29;7.70;;;3.75;;
62915;SDS011;49010;51.230;-2.306;2022-09-02T10:14:09;4.95;;;2.53;;
62915;SDS011;49010;51.230;-2.306;2022-09-02T10:17:56;8.13;;;3.50;;
62915;SDS011;49010;51.230;-2.306;2022-09-02T10:22:35;7.70;;;3.28;;
62915;SDS011;49010;51.230;-2.306;2022-09-02T10:26:21;6.20;;;2.72;;
62915;SDS011;49010;51.230;-2.306;2022-09-02T10:30:19;8.10;;;2.63;;
62915;SDS011;49010;51.230;-2.306;2022-09-02T10:46:25;3.90;;;2.40;;
62915;SDS011;49010;51.230;-2.306;2022-09-02T10:54:52;6.00;;;2.25;;
62915;SDS011;49010;51.230;-2.306;2022-09-02T10:58:54;6.85;;;2.55;;
62915;SDS011;49010;51.230;-2.306;2022-09-02T11:02:47;6.82;;;2.50;;
62915;SDS011;49010;51.230;-2.306;2022-09-02T11:06:37;5.88;;;2.35;;
62915;SDS011;49010;51.230;-2.306;2022-09-02T11:11:04;6.97;;;2.65;;
62915;SDS011;49010;51.230;-2.306;2022-09-02T11:14:55;4.68;;;2.42;;
62915;SDS011;49010;51.230;-2.306;2022-09-02T11:22:41;5.47;;;2.00;;
62915;SDS011;49010;51.230;-2.306;2022-09-02T11:26:27;5.15;;;1.70;;
62915;SDS011;49010;51.230;-2.306;2022-09-02T11:34:55;4.10;;;1.67;;
62915;SDS011;49010;51.230;-2.306;2022-09-02T11:50:46;4.40;;;2.20;;
62915;SDS011;49010;51.230;-2.306;2022-09-02T11:54:36;4.72;;;1.95;;
62915;SDS011;49010;51.230;-2.306;2022-09-02T12:06:26;6.18;;;1.70;;
62915;SDS011;49010;51.230;-2.306;2022-09-02T12:10:08;4.93;;;1.95;;
62915;SDS011;49010;51.230;-2.306;2022-09-02T12:13:51;4.13;;;1.42;;
62915;SDS011;49010;51.230;-2.306;2022-09-02T12:21:31;4.53;;;1.88;;
62915;SDS011;49010;51.230;-2.306;2022-09-02T12:33:08;6.05;;;2.10;;
62915;SDS011;49010;51.230;-2.306;2022-09-02T12:36:55;3.70;;;1.70;;
62915;SDS011;49010;51.230;-2.306;2022-09-02T12:40:40;5.03;;;1.80;;
62915;SDS011;49010;51.230;-2.306;2022-09-02T12:45:02;5.80;;;1.73;;
62915;SDS011;49010;51.230;-2.306;2022-09-02T12:49:42;4.90;;;2.40;;
62915;SDS011;49010;51.230;-2.306;2022-09-02T12:57:04;5.63;;;2.08;;
62915;SDS011;49010;51.230;-2.306;2022-09-02T13:17:28;6.07;;;2.20;;
62915;SDS011;49010;51.230;-2.306;2022-09-02T13:35:04;2.85;;;1.70;;
62915;SDS011;49010;51.230;-2.306;2022-09-02T13:38:48;6.93;;;1.95;;
62915;SDS011;49010;51.230;-2.306;2022-09-02T13:42:30;3.30;;;1.77;;
62915;SDS011;49010;51.230;-2.306;2022-09-02T13:46:13;3.78;;;1.45;;
62915;SDS011;49010;51.230;-2.306;2022-09-02T13:49:55;4.05;;;1.55;;
62915;SDS011;49010;51.230;-2.306;2022-09-02T13:53:39;4.63;;;2.17;;
62915;SDS011;49010;51.230;-2.306;2022-09-02T13:57:42;5.50;;;2.28;;
62915;SDS011;49010;51.230;-2.306;2022-09-02T14:05:14;4.80;;;1.65;;
62915;SDS011;49010;51.230;-2.306;2022-09-02T14:09:02;3.83;;;1.88;;
62915;SDS011;49010;51.230;-2.306;2022-09-02T14:12:47;6.07;;;2.20;;
62915;SDS011;49010;51.230;-2.306;2022-09-02T14:16:31;4.13;;;1.67;;
62915;SDS011;49010;51.230;-2.306;2022-09-02T14:20:17;6.13;;;1.80;;
62915;SDS011;49010;51.230;-2.306;2022-09-02T14:24:00;2.80;;;1.80;;
62915;SDS011;49010;51.230;-2.306;2022-09-02T14:27:51;5.25;;;1.67;;
62915;SDS011;49010;51.230;-2.306;2022-09-02T14:31:34;2.40;;;1.55;;
62915;SDS011;49010;51.230;-2.306;2022-09-02T14:35:22;3.22;;;1.40;;
62915;SDS011;49010;51.230;-2.306;2022-09-02T14:42:57;3.72;;;1.80;;
62915;SDS011;49010;51.230;-2.306;2022-09-02T14:50:36;3.63;;;1.65;;
62915;SDS011;49010;51.230;-2.306;2022-09-02T14:54:42;3.05;;;1.50;;
62915;SDS011;49010;51.230;-2.306;2022-09-02T14:58:26;4.63;;;1.63;;
62915;SDS011;49010;51.230;-2.306;2022-09-02T15:02:18;3.63;;;1.40;;
62915;SDS011;49010;51.230;-2.306;2022-09-02T15:06:21;4.97;;;2.03;;
62915;SDS011;49010;51.230;-2.306;2022-09-02T15:10:03;2.80;;;1.60;;
62915;SDS011;49010;51.230;-2.306;2022-09-02T15:13:49;4.55;;;1.30;;
62915;SDS011;49010;51.230;-2.306;2022-09-02T15:17:32;3.72;;;1.52;;
62915;SDS011;49010;51.230;-2.306;2022-09-02T15:21:14;5.55;;;2.05;;
62915;SDS011;49010;51.230;-2.306;2022-09-02T15:24:56;5.28;;;2.10;;
62915;SDS011;49010;51.230;-2.306;2022-09-02T15:28:38;5.88;;;1.98;;
62915;SDS011;49010;51.230;-2.306;2022-09-02T15:32:21;5.05;;;1.80;;
62915;SDS011;49010;51.230;-2.306;2022-09-02T15:36:06;3.67;;;2.00;;
62915;SDS011;49010;51.230;-2.306;2022-09-02T15:39:51;4.43;;;2.00;;
62915;SDS011;49010;51.230;-2.306;2022-09-02T15:43:33;3.97;;;1.63;;
62915;SDS011;49010;51.230;-2.306;2022-09-02T15:47:15;4.63;;;2.05;;
62915;SDS011;49010;51.230;-2.306;2022-09-02T15:50:57;6.57;;;2.35;;
62915;SDS011;49010;51.230;-2.306;2022-09-02T15:54:39;5.40;;;1.95;;
62915;SDS011;49010;51.230;-2.306;2022-09-02T15:58:21;5.38;;;2.35;;
62915;SDS011;49010;51.230;-2.306;2022-09-02T16:02:02;3.85;;;1.60;;
62915;SDS011;49010;51.230;-2.306;2022-09-02T16:05:44;4.35;;;2.00;;
62915;SDS011;49010;51.230;-2.306;2022-09-02T16:09:27;5.30;;;2.25;;
62915;SDS011;49010;51.230;-2.306;2022-09-02T16:13:09;3.25;;;1.92;;
62915;SDS011;49010;51.230;-2.306;2022-09-02T16:16:51;4.82;;;2.47;;
62915;SDS011;49010;51.230;-2.306;2022-09-02T16:20:37;5.28;;;2.28;;
62915;SDS011;49010;51.230;-2.306;2022-09-02T16:24:19;3.25;;;2.05;;
62915;SDS011;49010;51.230;-2.306;2022-09-02T16:28:02;6.78;;;2.25;;
62915;SDS011;49010;51.230;-2.306;2022-09-02T16:31:45;3.83;;;2.05;;
62915;SDS011;49010;51.230;-2.306;2022-09-02T16:35:49;6.68;;;2.40;;
62915;SDS011;49010;51.230;-2.306;2022-09-02T16:39:31;4.47;;;2.33;;
62915;SDS011;49010;51.230;-2.306;2022-09-02T16:43:12;4.85;;;1.52;;
62915;SDS011;49010;51.230;-2.306;2022-09-02T16:46:54;5.95;;;2.28;;
62915;SDS011;49010;51.230;-2.306;2022-09-02T16:50:36;3.30;;;1.92;;
62915;SDS011;49010;51.230;-2.306;2022-09-02T16:54:18;4.82;;;2.10;;
62915;SDS011;49010;51.230;-2.306;2022-09-02T16:58:11;3.70;;;1.77;;
62915;SDS011;49010;51.230;-2.306;2022-09-02T17:01:54;5.57;;;2.50;;
62915;SDS011;49010;51.230;-2.306;2022-09-02T17:05:36;4.80;;;2.20;;
62915;SDS011;49010;51.230;-2.306;2022-09-02T17:09:18;5.50;;;1.92;;
62915;SDS011;49010;51.230;-2.306;2022-09-02T17:13:01;6.45;;;2.92;;
62915;SDS011;49010;51.230;-2.306;2022-09-02T17:16:45;5.05;;;2.30;;
62915;SDS011;49010;51.230;-2.306;2022-09-02T17:20:29;5.57;;;2.47;;
62915;SDS011;49010;51.230;-2.306;2022-09-02T17:24:12;13.75;;;12.05;;
62915;SDS011;49010;51.230;-2.306;2022-09-02T17:27:54;4.53;;;2.20;;
62915;SDS011;49010;51.230;-2.306;2022-09-02T17:31:36;5.35;;;2.15;;
62915;SDS011;49010;51.230;-2.306;2022-09-02T17:35:18;5.25;;;2.40;;
62915;SDS011;49010;51.230;-2.306;2022-09-02T17:39:02;6.15;;;2.47;;
62915;SDS011;49010;51.230;-2.306;2022-09-02T17:46:28;3.75;;;1.88;;
62915;SDS011;49010;51.230;-2.306;2022-09-02T17:50:10;4.28;;;2.00;;
62915;SDS011;49010;51.230;-2.306;2022-09-02T17:53:58;7.38;;;2.33;;
62915;SDS011;49010;51.230;-2.306;2022-09-02T17:58:02;5.30;;;2.20;;
62915;SDS011;49010;51.230;-2.306;2022-09-02T18:06:16;6.18;;;2.00;;
62915;SDS011;49010;51.230;-2.306;2022-09-02T18:10:06;5.78;;;2.17;;
62915;SDS011;49010;51.230;-2.306;2022-09-02T18:17:55;7.88;;;2.42;;
62915;SDS011;49010;51.230;-2.306;2022-09-02T18:21:47;5.00;;;2.15;;
62915;SDS011;49010;51.230;-2.306;2022-09-02T18:46:12;5.28;;;2.10;;
62915;SDS011;49010;51.230;-2.306;2022-09-02T18:50:00;5.35;;;2.40;;
62915;SDS011;49010;51.230;-2.306;2022-09-02T18:53:47;5.30;;;2.25;;
62915;SDS011;49010;51.230;-2.306;2022-09-02T18:57:35;4.28;;;2.50;;
62915;SDS011;49010;51.230;-2.306;2022-09-02T19:01:25;4.25;;;2.20;;
62915;SDS011;49010;51.230;-2.306;2022-09-02T19:05:11;5.65;;;2.35;;
62915;SDS011;49010;51.230;-2.306;2022-09-02T19:08:57;6.93;;;2.75;;
62915;SDS011;49010;51.230;-2.306;2022-09-02T19:12:59;5.88;;;2.05;;
62915;SDS011;49010;51.230;-2.306;2022-09-02T19:16:42;4.00;;;2.70;;
62915;SDS011;49010;51.230;-2.306;2022-09-02T19:20:23;6.07;;;2.65;;
62915;SDS011;49010;51.230;-2.306;2022-09-02T19:24:07;6.63;;;2.47;;
62915;SDS011;49010;51.230;-2.306;2022-09-02T19:27:52;6.68;;;2.67;;
62915;SDS011;49010;51.230;-2.306;2022-09-02T19:31:36;6.35;;;2.58;;
62915;SDS011;49010;51.230;-2.306;2022-09-02T19:35:21;4.82;;;2.63;;
62915;SDS011;49010;51.230;-2.306;2022-09-02T19:39:06;8.25;;;2.95;;
62915;SDS011;49010;51.230;-2.306;2022-09-02T19:42:48;4.63;;;2.75;;
62915;SDS011;49010;51.230;-2.306;2022-09-02T19:46:32;8.32;;;3.47;;
62915;SDS011;49010;51.230;-2.306;2022-09-02T19:50:38;7.30;;;3.33;;
62915;SDS011;49010;51.230;-2.306;2022-09-02T19:54:22;7.10;;;3.30;;
62915;SDS011;49010;51.230;-2.306;2022-09-02T19:58:04;7.25;;;3.50;;
62915;SDS011;49010;51.230;-2.306;2022-09-02T20:01:46;5.55;;;2.80;;
62915;SDS011;49010;51.230;-2.306;2022-09-02T20:05:27;5.00;;;2.95;;
62915;SDS011;49010;51.230;-2.306;2022-09-02T20:09:10;5.80;;;3.60;;
62915;SDS011;49010;51.230;-2.306;2022-09-02T20:12:52;9.20;;;3.83;;
62915;SDS011;49010;51.230;-2.306;2022-09-02T20:16:34;6.30;;;3.05;;
62915;SDS011;49010;51.230;-2.306;2022-09-02T20:20:18;5.25;;;2.75;;
62915;SDS011;49010;51.230;-2.306;2022-09-02T20:24:06;6.35;;;3.00;;
62915;SDS011;49010;51.230;-2.306;2022-09-02T20:32:32;5.70;;;3.63;;
62915;SDS011;49010;51.230;-2.306;2022-09-02T20:56:16;8.27;;;3.83;;
62915;SDS011;49010;51.230;-2.306;2022-09-02T21:07:41;4.32;;;3.25;;
62915;SDS011;49010;51.230;-2.306;2022-09-02T21:11:28;9.45;;;3.50;;
62915;SDS011;49010;51.230;-2.306;2022-09-02T21:15:24;8.27;;;3.90;;
62915;SDS011;49010;51.230;-2.306;2022-09-02T21:19:16;7.10;;;3.28;;
62915;SDS011;49010;51.230;-2.306;2022-09-02T21:23:18;6.20;;;3.85;;
62915;SDS011;49010;51.230;-2.306;2022-09-02T21:27:16;7.35;;;3.42;;
62915;SDS011;49010;51.230;-2.306;2022-09-02T21:31:33;11.73;;;4.00;;
62915;SDS011;49010;51.230;-2.306;2022-09-02T21:35:23;5.13;;;3.58;;
62915;SDS011;49010;51.230;-2.306;2022-09-02T21:39:13;6.15;;;4.05;;
62915;SDS011;49010;51.230;-2.306;2022-09-02T21:43:06;7.60;;;4.15;;
62915;SDS011;49010;51.230;-2.306;2022-09-02T21:50:57;7.22;;;4.60;;
62915;SDS011;49010;51.230;-2.306;2022-09-02T21:59:26;7.38;;;5.50;;
62915;SDS011;49010;51.230;-2.306;2022-09-02T22:03:16;10.65;;;6.22;;
62915;SDS011;49010;51.230;-2.306;2022-09-02T22:12:11;9.07;;;6.75;;
62915;SDS011;49010;51.230;-2.306;2022-09-02T22:15:45;7.78;;;5.63;;
62915;SDS011;49010;51.230;-2.306;2022-09-02T22:19:28;11.82;;;7.25;;
62915;SDS011;49010;51.230;-2.306;2022-09-02T22:23:22;9.40;;;7.23;;
62915;SDS011;49010;51.230;-2.306;2022-09-02T22:30:55;8.85;;;6.45;;
62915;SDS011;49010;51.230;-2.306;2022-09-02T22:34:52;12.85;;;7.63;;
62915;SDS011;49010;51.230;-2.306;2022-09-02T22:38:45;11.60;;;8.80;;
62915;SDS011;49010;51.230;-2.306;2022-09-02T22:46:15;14.77;;;7.53;;
62915;SDS011;49010;51.230;-2.306;2022-09-02T22:50:23;10.68;;;7.32;;
62915;SDS011;49010;51.230;-2.306;2022-09-02T22:54:29;9.13;;;6.90;;
62915;SDS011;49010;51.230;-2.306;2022-09-02T23:02:20;11.50;;;7.03;;
62915;SDS011;49010;51.230;-2.306;2022-09-02T23:06:13;10.48;;;7.18;;
62915;SDS011;49010;51.230;-2.306;2022-09-02T23:10:20;9.68;;;7.80;;
62915;SDS011;49010;51.230;-2.306;2022-09-02T23:18:51;9.30;;;7.47;;
62915;SDS011;49010;51.230;-2.306;2022-09-02T23:26:45;15.85;;;7.82;;
62915;SDS011;49010;51.230;-2.306;2022-09-02T23:30:55;9.82;;;7.40;;
62915;SDS011;49010;51.230;-2.306;2022-09-02T23:38:59;9.73;;;7.32;;
62915;SDS011;49010;51.230;-2.306;2022-09-02T23:42:56;9.73;;;7.90;;
